Time;durP1;ratioP1;P1;durP2;ratioP2;P2;SDS_P1;SDS_P2;PMS_P1;PMS_P2;Temp;Humidity;BMP_temperature;BMP_pressure;BME280_temperature;BME280_humidity;BME280_pressure;Samples;Min_cycle;Max_cycle;Signal;HPM_P1;HPM_P2
2021/04/26 00:00:31;;;;;;;3.07;1.23;;;6.00;1.00;;;;;;5052376;28;20181;-61
2021/04/26 00:02:58;;;;;;;2.43;1.80;;;6.00;1.00;;;;;;5054080;28;20609;-61
2021/04/26 00:05:25;;;;;;;2.25;1.60;;;6.10;1.00;;;;;;5056015;28;20205;-61
2021/04/26 00:07:52;;;;;;;3.42;1.83;;;6.20;1.00;;;;;;5056228;28;20688;-62
2021/04/26 00:10:18;;;;;;;4.55;1.65;;;6.10;1.00;;;;;;5056185;28;20190;-61
2021/04/26 00:12:45;;;;;;;2.00;1.00;;;6.10;1.00;;;;;;5056150;28;20231;-62
2021/04/26 00:15:15;;;;;;;1.88;1.15;;;6.20;1.00;;;;;;5055613;28;21019;-62
2021/04/26 00:17:41;;;;;;;1.67;1.45;;;6.10;1.00;;;;;;5054887;28;20203;-62
2021/04/26 00:20:11;;;;;;;1.77;1.10;;;6.10;1.00;;;;;;5055982;28;20188;-62
2021/04/26 00:22:37;;;;;;;4.00;1.13;;;5.70;1.00;;;;;;5055690;28;20276;-63
2021/04/26 00:25:06;;;;;;;2.78;1.25;;;5.60;1.00;;;;;;5055435;28;20209;-62
2021/04/26 00:27:32;;;;;;;1.73;1.23;;;5.60;1.00;;;;;;5055724;28;20226;-62
2021/04/26 00:29:58;;;;;;;2.58;1.10;;;5.80;1.00;;;;;;5055882;28;20184;-62
2021/04/26 00:32:23;;;;;;;1.80;1.23;;;5.70;1.00;;;;;;5055903;28;20315;-62
2021/04/26 00:34:49;;;;;;;3.00;1.20;;;5.80;1.00;;;;;;5055254;28;20176;-62
2021/04/26 00:37:15;;;;;;;2.10;0.97;;;6.00;1.00;;;;;;5055693;28;20250;-62
2021/04/26 00:39:40;;;;;;;2.60;1.47;;;5.90;1.00;;;;;;5055301;28;20192;-62
2021/04/26 00:42:06;;;;;;;1.80;0.90;;;5.80;1.00;;;;;;5055909;28;20181;-62
2021/04/26 00:44:31;;;;;;;1.47;0.87;;;5.70;1.00;;;;;;5055170;28;20218;-62
2021/04/26 00:46:57;;;;;;;1.90;1.00;;;5.70;1.00;;;;;;5055563;28;20238;-62
2021/04/26 00:49:23;;;;;;;2.20;1.20;;;5.60;1.00;;;;;;5055558;28;20230;-61
2021/04/26 00:51:48;;;;;;;1.27;0.90;;;5.60;1.00;;;;;;5055343;28;20181;-62
2021/04/26 00:54:17;;;;;;;2.07;1.00;;;5.60;1.00;;;;;;5054963;28;20180;-62
2021/04/26 00:56:43;;;;;;;1.08;0.90;;;5.60;1.00;;;;;;5055249;28;20287;-62
2021/04/26 00:59:09;;;;;;;1.50;1.10;;;5.50;1.00;;;;;;5055221;28;20259;-62
2021/04/26 01:01:35;;;;;;;1.35;0.70;;;5.50;1.00;;;;;;5055266;28;20914;-62
2021/04/26 01:04:01;;;;;;;3.03;0.97;;;5.50;1.00;;;;;;5054829;28;20209;-62
2021/04/26 01:06:26;;;;;;;2.50;1.13;;;5.60;1.00;;;;;;5055121;28;20621;-62
2021/04/26 01:08:52;;;;;;;0.93;0.67;;;5.60;1.00;;;;;;5054848;28;20523;-62
2021/04/26 01:11:21;;;;;;;1.50;0.87;;;5.60;1.00;;;;;;5054966;28;20173;-62
2021/04/26 01:13:56;;;;;;;1.38;1.00;;;5.60;1.00;;;;;;5054103;28;20263;-62
2021/04/26 01:16:39;;;;;;;1.48;1.23;;;5.50;1.00;;;;;;5054837;28;20177;-62
2021/04/26 01:19:35;;;;;;;1.95;1.17;;;5.40;1.00;;;;;;5054773;28;20621;-62
2021/04/26 01:22:42;;;;;;;1.15;1.00;;;5.30;1.00;;;;;;5054848;28;20178;-62
2021/04/26 01:25:14;;;;;;;1.58;1.02;;;5.30;1.00;;;;;;5054471;28;20211;-62
2021/04/26 01:28:12;;;;;;;1.98;0.77;;;5.40;1.00;;;;;;5054808;28;20172;-62
2021/04/26 01:30:57;;;;;;;1.75;0.68;;;5.40;1.00;;;;;;5051390;28;20250;-62
2021/04/26 01:33:27;;;;;;;1.00;1.00;;;5.50;1.00;;;;;;5054555;28;20199;-62
2021/04/26 01:35:54;;;;;;;1.30;0.95;;;5.40;1.00;;;;;;5054174;28;20204;-62
2021/04/26 01:38:31;;;;;;;1.50;0.90;;;5.40;1.00;;;;;;5054476;28;20176;-62
2021/04/26 01:40:58;;;;;;;2.92;1.13;;;5.30;1.00;;;;;;5054518;28;20214;-62
2021/04/26 01:43:26;;;;;;;2.38;0.60;;;5.40;1.00;;;;;;5054008;28;20180;-62
2021/04/26 01:45:53;;;;;;;2.05;0.95;;;5.30;1.00;;;;;;5054212;28;20188;-62
2021/04/26 01:48:20;;;;;;;1.67;1.13;;;5.30;1.00;;;;;;5054306;28;20184;-62
2021/04/26 01:50:46;;;;;;;1.55;0.90;;;5.30;1.00;;;;;;5053084;28;20181;-62
2021/04/26 01:53:11;;;;;;;1.73;1.02;;;5.10;1.00;;;;;;5054097;28;20200;-62
2021/04/26 01:55:38;;;;;;;1.30;1.20;;;5.20;1.00;;;;;;5054180;28;20667;-62
2021/04/26 01:58:04;;;;;;;6.07;1.52;;;5.30;1.00;;;;;;5054077;28;20192;-62
2021/04/26 02:00:34;;;;;;;1.40;0.77;;;5.20;1.00;;;;;;5054032;28;20581;-62
2021/04/26 02:03:01;;;;;;;1.67;1.30;;;5.00;1.00;;;;;;5053979;28;20431;-62
2021/04/26 02:05:28;;;;;;;1.35;1.17;;;5.00;1.00;;;;;;5054063;28;20298;-62
2021/04/26 02:07:55;;;;;;;2.97;1.45;;;5.10;1.00;;;;;;5054168;28;20378;-62
2021/04/26 02:10:24;;;;;;;6.85;1.55;;;5.10;1.00;;;;;;5054231;28;20206;-62
2021/04/26 02:12:50;;;;;;;2.28;1.63;;;5.10;1.00;;;;;;5054429;28;20180;-62
2021/04/26 02:15:20;;;;;;;5.60;1.60;;;5.20;1.00;;;;;;5053619;28;20499;-62
2021/04/26 02:17:47;;;;;;;2.08;1.80;;;5.00;1.00;;;;;;5053715;28;20180;-62
2021/04/26 02:20:15;;;;;;;2.97;1.80;;;5.00;1.00;;;;;;5053969;28;20200;-62
2021/04/26 02:22:41;;;;;;;1.88;1.40;;;4.80;1.00;;;;;;5053706;28;20187;-62
2021/04/26 02:25:10;;;;;;;2.55;1.52;;;4.80;1.00;;;;;;5052881;28;20208;-62
2021/04/26 02:27:36;;;;;;;4.88;3.17;;;4.90;1.00;;;;;;5053417;28;20176;-62
2021/04/26 02:30:03;;;;;;;1.30;1.20;;;4.80;1.00;;;;;;5053387;28;20191;-62
2021/04/26 02:32:57;;;;;;;4.05;1.65;;;4.80;1.00;;;;;;5053635;28;20188;-62
2021/04/26 02:35:31;;;;;;;2.85;1.63;;;4.80;1.00;;;;;;5053405;28;20184;-62
2021/04/26 02:38:00;;;;;;;3.88;1.15;;;4.70;1.00;;;;;;5053487;28;20242;-62
2021/04/26 02:40:30;;;;;;;2.85;1.45;;;4.60;1.00;;;;;;5053407;28;20176;-62
2021/04/26 02:43:01;;;;;;;1.90;1.40;;;4.50;1.00;;;;;;5053308;28;20177;-62
2021/04/26 02:45:29;;;;;;;3.30;1.42;;;4.60;1.00;;;;;;5052952;28;20533;-62
2021/04/26 02:47:55;;;;;;;2.15;1.35;;;4.50;1.00;;;;;;5053260;28;20569;-62
2021/04/26 02:50:27;;;;;;;1.63;1.30;;;4.50;1.00;;;;;;5053041;28;20612;-62
2021/04/26 02:52:53;;;;;;;2.53;1.23;;;4.50;1.00;;;;;;5052211;28;20187;-62
2021/04/26 02:55:21;;;;;;;2.50;1.40;;;4.40;1.00;;;;;;5052740;28;20190;-62
2021/04/26 02:57:49;;;;;;;3.85;1.63;;;4.40;1.00;;;;;;5052972;28;20680;-62
2021/04/26 03:00:18;;;;;;;2.90;1.30;;;4.40;1.00;;;;;;5053207;28;20180;-62
2021/04/26 03:02:44;;;;;;;1.83;1.50;;;4.40;1.00;;;;;;5052894;28;20195;-62
2021/04/26 03:05:12;;;;;;;2.55;1.67;;;4.50;1.00;;;;;;5052502;28;20215;-62
2021/04/26 03:07:41;;;;;;;2.22;1.52;;;4.50;1.00;;;;;;5052122;28;20519;-61
2021/04/26 03:10:10;;;;;;;3.20;1.45;;;4.40;1.00;;;;;;5052833;28;20345;-62
2021/04/26 03:12:39;;;;;;;2.50;1.75;;;4.50;1.00;;;;;;5053225;28;20503;-62
2021/04/26 03:15:08;;;;;;;1.77;1.65;;;4.60;1.00;;;;;;5052234;28;20639;-62
2021/04/26 03:17:37;;;;;;;1.70;1.10;;;4.60;1.00;;;;;;5052796;28;20632;-62
2021/04/26 03:20:08;;;;;;;1.58;1.30;;;4.70;1.00;;;;;;5052752;28;20518;-62
2021/04/26 03:22:34;;;;;;;2.67;1.15;;;4.80;1.00;;;;;;5051621;28;20180;-62
2021/04/26 03:25:00;;;;;;;6.38;1.67;;;4.80;1.00;;;;;;5052311;28;20222;-62
2021/04/26 03:27:27;;;;;;;1.83;1.13;;;4.70;1.00;;;;;;5052694;28;20260;-62
2021/04/26 03:29:54;;;;;;;7.03;1.67;;;4.70;1.00;;;;;;5053005;28;20189;-62
2021/04/26 03:32:20;;;;;;;3.55;1.88;;;4.80;1.00;;;;;;5052784;28;20509;-62
2021/04/26 03:34:47;;;;;;;3.67;1.92;;;4.90;1.00;;;;;;5052286;28;20184;-62
2021/04/26 03:37:15;;;;;;;2.72;1.60;;;5.10;1.00;;;;;;5054178;28;20189;-62
2021/04/26 03:39:42;;;;;;;2.47;1.70;;;5.10;1.00;;;;;;5056773;28;20188;-62
2021/04/26 03:42:08;;;;;;;3.00;2.13;;;5.10;1.00;;;;;;5055639;28;20198;-63
2021/04/26 03:44:34;;;;;;;4.67;1.90;;;5.00;1.00;;;;;;5055334;28;20295;-63
2021/04/26 03:47:02;;;;;;;2.00;1.67;;;5.00;1.00;;;;;;5056833;28;20430;-63
2021/04/26 03:49:28;;;;;;;4.40;1.45;;;5.00;1.00;;;;;;5056512;28;20621;-63
2021/04/26 03:51:54;;;;;;;1.80;1.30;;;5.10;1.00;;;;;;5056733;28;20194;-62
2021/04/26 03:54:21;;;;;;;2.95;1.25;;;5.00;1.00;;;;;;5055245;28;20188;-60
2021/04/26 03:56:47;;;;;;;2.08;1.50;;;4.80;1.00;;;;;;5056357;28;20184;-62
2021/04/26 03:59:13;;;;;;;2.08;1.05;;;4.90;1.00;;;;;;5054697;28;20194;-62
2021/04/26 04:01:39;;;;;;;1.92;1.60;;;4.80;1.00;;;;;;5056284;28;20220;-63
2021/04/26 04:04:05;;;;;;;3.00;1.77;;;4.90;1.00;;;;;;5055711;28;20236;-62
2021/04/26 04:06:31;;;;;;;2.90;1.25;;;5.00;1.00;;;;;;5056149;28;20260;-62
2021/04/26 04:08:59;;;;;;;6.25;1.73;;;5.00;1.00;;;;;;5055708;28;20212;-61
2021/04/26 04:11:25;;;;;;;3.20;1.90;;;5.00;1.00;;;;;;5056000;28;20180;-61
2021/04/26 04:13:50;;;;;;;3.10;1.67;;;5.10;1.00;;;;;;5055577;28;20188;-61
2021/04/26 04:16:16;;;;;;;2.00;1.33;;;5.10;1.00;;;;;;5055823;28;20195;-61
2021/04/26 04:18:42;;;;;;;2.30;1.53;;;5.30;1.00;;;;;;5055897;28;20688;-62
2021/04/26 04:21:08;;;;;;;3.07;1.47;;;5.20;1.00;;;;;;5054872;28;20738;-62
2021/04/26 04:23:33;;;;;;;3.20;2.10;;;5.30;1.00;;;;;;5054745;28;20191;-61
2021/04/26 04:25:59;;;;;;;6.77;2.00;;;5.30;1.00;;;;;;5055672;28;20633;-61
2021/04/26 04:28:24;;;;;;;3.77;1.17;;;5.30;1.00;;;;;;5055710;28;20180;-61
2021/04/26 04:30:50;;;;;;;3.80;1.97;;;5.30;1.00;;;;;;5055599;28;20215;-61
2021/04/26 04:33:16;;;;;;;4.50;1.77;;;5.40;1.00;;;;;;5055582;28;20241;-61
2021/04/26 04:35:42;;;;;;;2.17;1.30;;;5.40;1.00;;;;;;5055002;28;20222;-60
2021/04/26 04:38:08;;;;;;;1.67;1.20;;;5.30;1.00;;;;;;5055027;28;20684;-61
2021/04/26 04:40:33;;;;;;;1.90;1.60;;;5.50;1.00;;;;;;5055663;28;20262;-62
2021/04/26 04:42:59;;;;;;;3.73;1.90;;;5.50;1.00;;;;;;5055693;28;20636;-62
2021/04/26 04:45:24;;;;;;;5.17;1.87;;;5.60;1.00;;;;;;5055096;28;20255;-62
2021/04/26 04:47:50;;;;;;;2.77;1.73;;;5.50;1.00;;;;;;5055159;28;20647;-62
2021/04/26 04:50:16;;;;;;;3.23;1.53;;;5.60;1.00;;;;;;5054725;28;20184;-62
2021/04/26 04:52:42;;;;;;;9.87;1.70;;;5.60;1.00;;;;;;5055112;28;20636;-62
2021/04/26 04:55:10;;;;;;;2.50;1.80;;;5.60;1.00;;;;;;5054833;28;20178;-62
2021/04/26 04:57:36;;;;;;;1.30;1.20;;;5.70;1.00;;;;;;5055102;28;20511;-62
2021/04/26 05:00:04;;;;;;;1.70;1.17;;;5.60;1.00;;;;;;5055507;28;20227;-62
2021/04/26 05:02:29;;;;;;;1.08;1.05;;;5.70;1.00;;;;;;5055083;28;20524;-62
2021/04/26 05:04:55;;;;;;;1.47;1.33;;;5.80;1.00;;;;;;5054432;28;20213;-62
2021/04/26 05:07:20;;;;;;;2.87;2.03;;;5.90;1.00;;;;;;5054729;28;20181;-62
2021/04/26 05:09:46;;;;;;;2.17;1.27;;;6.00;1.00;;;;;;5054654;28;20208;-62
2021/04/26 05:12:13;;;;;;;2.13;1.30;;;6.20;1.00;;;;;;5054997;28;20184;-62
2021/04/26 05:14:40;;;;;;;4.63;1.38;;;6.60;1.00;;;;;;5054494;28;20620;-62
2021/04/26 05:17:05;;;;;;;2.00;1.77;;;7.00;1.00;;;;;;5054617;28;20182;-61
2021/04/26 05:19:32;;;;;;;2.63;1.30;;;7.50;1.00;;;;;;5054763;28;20633;-61
2021/04/26 05:21:58;;;;;;;2.85;1.50;;;7.80;1.00;;;;;;5054581;28;20704;-61
2021/04/26 05:24:24;;;;;;;4.50;2.00;;;7.90;1.00;;;;;;5053260;28;20244;-62
2021/04/26 05:26:49;;;;;;;3.30;1.33;;;7.60;1.00;;;;;;5054580;28;20431;-61
2021/04/26 05:29:15;;;;;;;3.53;1.30;;;7.40;1.00;;;;;;5054711;28;20896;-61
2021/04/26 05:31:41;;;;;;;2.70;1.57;;;7.50;1.00;;;;;;5053539;28;20203;-61
2021/04/26 05:34:07;;;;;;;6.37;1.73;;;7.90;1.00;;;;;;5053616;28;20250;-62
2021/04/26 05:36:32;;;;;;;3.55;1.33;;;8.20;1.00;;;;;;5053920;28;20179;-62
2021/04/26 05:39:00;;;;;;;5.10;1.40;;;8.30;1.00;;;;;;5054123;28;20211;-61
2021/04/26 05:41:25;;;;;;;8.63;2.78;;;8.30;1.00;;;;;;5054343;28;20195;-62
2021/04/26 05:43:51;;;;;;;2.30;1.33;;;8.10;1.00;;;;;;5053859;28;20291;-62
2021/04/26 05:46:17;;;;;;;4.63;1.83;;;8.40;1.00;;;;;;5054330;28;20424;-62
2021/04/26 05:48:43;;;;;;;2.77;1.10;;;8.50;1.00;;;;;;5054217;28;20242;-62
2021/04/26 05:51:08;;;;;;;6.23;2.60;;;8.20;1.00;;;;;;5054145;28;20180;-62
2021/04/26 05:53:34;;;;;;;2.30;2.10;;;8.10;1.00;;;;;;5052877;28;20322;-62
2021/04/26 05:56:00;;;;;;;4.30;1.90;;;8.50;1.00;;;;;;5053843;28;20292;-62
2021/04/26 05:58:26;;;;;;;6.87;2.80;;;8.90;1.00;;;;;;5054024;28;20420;-62
2021/04/26 06:00:53;;;;;;;3.85;2.85;;;9.00;1.00;;;;;;5052763;28;20184;-62
2021/04/26 06:03:19;;;;;;;4.22;2.70;;;8.90;1.00;;;;;;5053962;28;20196;-62
2021/04/26 06:05:44;;;;;;;3.87;2.10;;;8.60;1.00;;;;;;5052507;28;20295;-62
2021/04/26 06:08:10;;;;;;;2.80;2.00;;;8.50;1.00;;;;;;5053727;28;20184;-62
2021/04/26 06:10:35;;;;;;;4.87;1.93;;;8.30;1.00;;;;;;5052801;28;20192;-62
2021/04/26 06:13:01;;;;;;;3.13;2.20;;;8.40;1.00;;;;;;5053540;28;20177;-61
2021/04/26 06:15:27;;;;;;;3.47;2.33;;;8.20;1.00;;;;;;5053076;28;20211;-60
2021/04/26 06:18:05;;;;;;;3.43;2.23;;;8.30;1.00;;;;;;5053556;28;20196;-61
2021/04/26 06:20:31;;;;;;;4.88;2.17;;;8.70;1.00;;;;;;5053603;28;20197;-61
2021/04/26 06:22:56;;;;;;;3.77;2.20;;;9.50;1.00;;;;;;5052603;28;20238;-61
2021/04/26 06:25:22;;;;;;;4.37;2.27;;;10.00;1.00;;;;;;5052803;28;20205;-61
2021/04/26 06:27:47;;;;;;;4.70;2.27;;;10.40;1.00;;;;;;5053262;28;20200;-61
2021/04/26 06:30:14;;;;;;;4.90;2.27;;;10.30;1.00;;;;;;5053593;28;20179;-61
2021/04/26 06:32:39;;;;;;;5.93;2.72;;;10.60;1.00;;;;;;5053296;28;20183;-61
2021/04/26 06:35:05;;;;;;;5.60;2.20;;;11.10;1.00;;;;;;5052924;28;20180;-61
2021/04/26 06:37:31;;;;;;;5.00;1.73;;;11.00;1.00;;;;;;5052794;28;20199;-63
2021/04/26 06:39:56;;;;;;;1.53;1.37;;;11.70;1.00;;;;;;5052933;28;20430;-62
2021/04/26 06:42:23;;;;;;;1.23;1.13;;;11.10;1.00;;;;;;5052817;28;20623;-62
2021/04/26 06:44:49;;;;;;;2.78;0.98;;;10.30;1.00;;;;;;5052427;28;20296;-62
2021/04/26 06:47:15;;;;;;;1.63;1.13;;;10.30;1.00;;;;;;5051931;28;20547;-62
2021/04/26 06:49:40;;;;;;;0.80;0.70;;;11.70;1.00;;;;;;5052952;28;20604;-61
2021/04/26 06:52:06;;;;;;;3.17;1.60;;;11.40;1.00;;;;;;5052683;28;20181;-63
2021/04/26 06:54:31;;;;;;;1.20;1.10;;;10.50;1.00;;;;;;5052715;28;20185;-63
2021/04/26 06:56:57;;;;;;;3.70;1.03;;;10.80;1.00;;;;;;5052964;28;20245;-63
2021/04/26 06:59:22;;;;;;;1.70;1.00;;;10.90;1.00;;;;;;5053022;28;20177;-63
2021/04/26 07:01:48;;;;;;;1.33;0.90;;;11.10;1.00;;;;;;5052585;28;20176;-62
2021/04/26 07:04:14;;;;;;;1.77;1.00;;;10.70;1.00;;;;;;5052368;28;20212;-62
2021/04/26 07:06:39;;;;;;;1.50;1.23;;;10.90;1.00;;;;;;5052955;28;20198;-62
2021/04/26 07:09:05;;;;;;;3.13;1.00;;;11.10;1.00;;;;;;5053053;28;20222;-61
2021/04/26 07:11:31;;;;;;;1.83;0.80;;;11.10;1.00;;;;;;5052557;28;20181;-61
2021/04/26 07:13:57;;;;;;;1.53;1.27;;;10.50;1.00;;;;;;5050492;28;20548;-61
2021/04/26 07:16:22;;;;;;;3.20;1.20;;;11.00;1.00;;;;;;5057399;28;20252;-61
2021/04/26 07:18:48;;;;;;;1.90;0.73;;;11.00;1.00;;;;;;5053311;28;20235;-66
2021/04/26 07:21:13;;;;;;;1.10;0.90;;;11.20;1.00;;;;;;5052989;28;20180;-66
2021/04/26 07:23:40;;;;;;;0.90;0.70;;;11.00;1.00;;;;;;5051849;28;20199;-66
2021/04/26 07:26:05;;;;;;;2.42;0.85;;;10.80;1.00;;;;;;5052980;28;20446;-65
2021/04/26 07:28:31;;;;;;;1.87;1.03;;;10.60;1.00;;;;;;5060161;28;20184;-66
2021/04/26 07:30:57;;;;;;;1.30;1.00;;;10.60;1.00;;;;;;5063236;28;20183;-66
2021/04/26 07:33:23;;;;;;;1.63;0.97;;;10.20;1.00;;;;;;5051981;28;20930;-63
2021/04/26 07:35:48;;;;;;;1.80;0.80;;;10.30;1.00;;;;;;5071102;28;20521;-63
2021/04/26 07:38:14;;;;;;;2.40;0.87;;;10.20;1.00;;;;;;5072280;28;20180;-66
2021/04/26 07:40:39;;;;;;;2.20;1.33;;;10.40;1.00;;;;;;5072195;28;20178;-66
2021/04/26 07:43:05;;;;;;;3.73;1.27;;;10.70;1.00;;;;;;5061920;28;20180;-65
2021/04/26 07:45:31;;;;;;;3.25;1.90;;;10.40;1.00;;;;;;5040233;28;20680;-64
2021/04/26 07:47:57;;;;;;;1.50;1.03;;;10.20;1.00;;;;;;5046747;28;20189;-63
2021/04/26 07:50:23;;;;;;;1.37;0.90;;;10.20;1.00;;;;;;5051890;28;20617;-63
2021/04/26 07:52:49;;;;;;;1.42;0.98;;;10.00;1.00;;;;;;5040432;28;20435;-63
2021/04/26 07:55:15;;;;;;;0.93;0.73;;;10.20;1.00;;;;;;5032456;28;20192;-63
2021/04/26 07:57:40;;;;;;;2.03;1.57;;;10.30;1.00;;;;;;5032228;28;20178;-63
2021/04/26 08:00:07;;;;;;;1.00;0.80;;;10.20;1.00;;;;;;5046134;28;20176;-62
2021/04/26 08:02:33;;;;;;;1.30;1.00;;;9.90;1.00;;;;;;5042767;28;20206;-66
2021/04/26 08:04:58;;;;;;;1.70;0.60;;;10.00;1.00;;;;;;5051662;28;20209;-66
2021/04/26 08:07:24;;;;;;;2.40;1.60;;;10.10;1.00;;;;;;5051785;28;20566;-66
2021/04/26 08:09:50;;;;;;;1.27;0.70;;;10.00;1.00;;;;;;5051716;28;20189;-63
2021/04/26 08:12:15;;;;;;;1.20;0.70;;;9.90;1.00;;;;;;5052247;28;20188;-63
2021/04/26 08:14:41;;;;;;;3.00;1.00;;;10.00;1.00;;;;;;5051077;28;20189;-64
2021/04/26 08:17:07;;;;;;;3.27;1.23;;;10.30;1.00;;;;;;5051695;28;20189;-65
2021/04/26 08:19:32;;;;;;;2.10;1.00;;;10.70;1.00;;;;;;5051525;28;20271;-65
2021/04/26 08:21:58;;;;;;;1.90;1.00;;;10.80;1.00;;;;;;5052925;28;20526;-67
2021/04/26 08:24:25;;;;;;;1.87;1.20;;;10.90;1.00;;;;;;5058739;28;20217;-65
2021/04/26 08:26:51;;;;;;;2.15;1.15;;;10.70;1.00;;;;;;5054502;28;20181;-65
2021/04/26 08:29:16;;;;;;;2.13;0.83;;;10.70;1.00;;;;;;5054206;28;20667;-64
2021/04/26 08:31:42;;;;;;;1.50;0.67;;;10.50;1.00;;;;;;5055584;28;20914;-67
2021/04/26 08:34:07;;;;;;;2.37;0.97;;;10.50;1.00;;;;;;5062031;28;20235;-69
2021/04/26 08:36:33;;;;;;;1.10;0.83;;;10.50;1.00;;;;;;5052041;28;20272;-67
2021/04/26 08:39:00;;;;;;;1.90;0.90;;;10.40;1.00;;;;;;5035548;28;20518;-67
2021/04/26 08:41:26;;;;;;;1.63;0.73;;;10.60;1.00;;;;;;5035300;28;20213;-68
2021/04/26 08:43:51;;;;;;;2.00;1.17;;;10.60;1.00;;;;;;5034495;28;20209;-68
2021/04/26 08:46:17;;;;;;;1.73;1.13;;;10.80;1.00;;;;;;5035255;28;20242;-68
2021/04/26 08:48:43;;;;;;;1.60;1.20;;;11.20;1.00;;;;;;5035027;28;20238;-67
2021/04/26 08:51:08;;;;;;;1.87;0.90;;;11.40;1.00;;;;;;5035644;28;20181;-67
2021/04/26 08:53:34;;;;;;;5.03;2.40;;;11.30;1.00;;;;;;5055191;28;20172;-68
2021/04/26 08:56:00;;;;;;;1.57;0.80;;;11.30;1.00;;;;;;5054916;28;20243;-68
2021/04/26 08:58:27;;;;;;;2.50;0.80;;;11.60;1.00;;;;;;5055366;28;20493;-65
2021/04/26 09:00:53;;;;;;;1.60;0.70;;;11.20;1.00;;;;;;5053895;28;20625;-65
2021/04/26 09:03:29;;;;;;;5.83;1.00;;;11.30;1.00;;;;;;5054649;28;20260;-65
2021/04/26 09:05:55;;;;;;;7.88;1.30;;;11.40;1.00;;;;;;5054365;28;20775;-65
2021/04/26 09:08:23;;;;;;;2.23;1.47;;;11.50;1.00;;;;;;5053206;28;20203;-67
2021/04/26 09:10:51;;;;;;;2.75;1.02;;;11.20;1.00;;;;;;5053791;28;20645;-67
2021/04/26 09:13:32;;;;;;;1.25;0.77;;;11.70;1.00;;;;;;5053526;28;20292;-66
2021/04/26 09:16:02;;;;;;;1.65;1.00;;;11.80;1.00;;;;;;5054750;28;20240;-64
2021/04/26 09:18:55;;;;;;;1.75;1.00;;;11.80;1.00;;;;;;5054685;28;20227;-64
2021/04/26 09:21:29;;;;;;;3.70;1.00;;;11.90;1.00;;;;;;5054272;28;20534;-63
2021/04/26 09:24:16;;;;;;;1.70;1.35;;;12.10;1.00;;;;;;5060433;28;20206;-64
2021/04/26 09:26:44;;;;;;;1.38;1.23;;;12.30;1.00;;;;;;5053333;28;20204;-63
2021/04/26 09:29:14;;;;;;;1.40;1.15;;;12.20;1.00;;;;;;5054354;28;20200;-67
2021/04/26 09:31:42;;;;;;;1.42;0.80;;;12.30;1.00;;;;;;5054328;28;20179;-67
2021/04/26 09:34:31;;;;;;;1.92;1.00;;;12.50;1.00;;;;;;5052733;28;20215;-68
2021/04/26 09:37:08;;;;;;;1.63;1.30;;;12.70;1.00;;;;;;5054474;28;20204;-65
2021/04/26 09:39:53;;;;;;;2.35;0.88;;;12.50;1.00;;;;;;5053376;28;20184;-65
2021/04/26 09:42:38;;;;;;;1.30;1.10;;;12.10;1.00;;;;;;5053864;28;20593;-64
2021/04/26 09:45:33;;;;;;;2.38;1.27;;;12.10;1.00;;;;;;5053912;28;20233;-68
2021/04/26 09:48:15;;;;;;;2.13;1.10;;;12.00;1.00;;;;;;5048241;28;20204;-68
2021/04/26 09:50:52;;;;;;;2.25;1.75;;;12.30;1.00;;;;;;5054330;28;20231;-65
2021/04/26 09:53:18;;;;;;;1.95;1.00;;;12.00;1.00;;;;;;5053485;28;20298;-65
2021/04/26 09:55:43;;;;;;;1.83;1.47;;;11.90;1.00;;;;;;5053999;28;20208;-64
2021/04/26 09:58:09;;;;;;;1.67;1.30;;;11.70;1.00;;;;;;5053768;28;20437;-63
2021/04/26 10:00:36;;;;;;;1.40;1.10;;;11.30;1.00;;;;;;5053838;28;20617;-63
2021/04/26 10:03:02;;;;;;;1.90;1.30;;;11.90;1.00;;;;;;5053618;28;20385;-65
2021/04/26 10:05:28;;;;;;;2.65;1.30;;;11.80;1.00;;;;;;5053116;28;20201;-64
2021/04/26 10:07:55;;;;;;;1.63;1.37;;;11.80;1.00;;;;;;5052281;28;20498;-64
2021/04/26 10:10:20;;;;;;;2.17;1.55;;;12.30;1.00;;;;;;5044440;28;20255;-69
2021/04/26 10:12:46;;;;;;;1.53;1.30;;;12.70;1.00;;;;;;5033699;28;20205;-68
2021/04/26 10:15:12;;;;;;;2.60;1.40;;;12.70;1.00;;;;;;5032080;28;20185;-69
2021/04/26 10:17:41;;;;;;;1.67;1.48;;;12.70;1.00;;;;;;5033258;28;20181;-69
2021/04/26 10:20:07;;;;;;;1.38;1.27;;;12.60;1.00;;;;;;5032406;28;20199;-67
2021/04/26 10:22:41;;;;;;;1.40;1.00;;;12.80;1.00;;;;;;5039115;28;20188;-67
2021/04/26 10:25:07;;;;;;;1.75;1.33;;;11.60;1.00;;;;;;5052909;28;20208;-67
2021/04/26 10:27:37;;;;;;;1.80;1.35;;;11.60;1.00;;;;;;5053065;28;20184;-68
2021/04/26 10:30:12;;;;;;;1.27;1.13;;;11.10;1.00;;;;;;5052055;28;20168;-69
2021/04/26 10:32:59;;;;;;;1.92;1.02;;;11.10;1.00;;;;;;5052221;28;20178;-68
2021/04/26 10:35:41;;;;;;;3.08;1.27;;;11.80;1.00;;;;;;5052622;28;20193;-67
2021/04/26 10:38:41;;;;;;;1.83;1.33;;;11.50;1.00;;;;;;5053008;28;20204;-67
2021/04/26 10:41:10;;;;;;;1.90;1.30;;;12.10;1.00;;;;;;5052865;28;20218;-66
2021/04/26 10:43:35;;;;;;;2.15;1.50;;;12.60;1.00;;;;;;5053558;28;20185;-66
2021/04/26 10:46:16;;;;;;;2.50;1.47;;;12.70;1.00;;;;;;5053059;28;20531;-66
2021/04/26 10:49:04;;;;;;;4.20;1.60;;;13.10;1.00;;;;;;5048293;28;20195;-66
2021/04/26 10:51:30;;;;;;;4.10;1.50;;;13.40;1.00;;;;;;5043958;28;20628;-65
2021/04/26 10:53:56;;;;;;;3.13;1.50;;;12.60;1.00;;;;;;5044234;28;20200;-63
2021/04/26 10:56:24;;;;;;;3.60;1.57;;;13.20;1.00;;;;;;5041141;28;20181;-64
2021/04/26 10:58:52;;;;;;;1.92;1.23;;;14.00;1.00;;;;;;5043290;28;20248;-65
2021/04/26 11:01:45;;;;;;;3.38;1.80;;;13.90;1.00;;;;;;5043872;28;20173;-62
2021/04/26 11:04:11;;;;;;;3.75;1.75;;;14.40;1.00;;;;;;5049147;28;20583;-65
2021/04/26 11:06:37;;;;;;;2.53;1.63;;;15.00;1.00;;;;;;5052240;28;20192;-65
2021/04/26 11:09:12;;;;;;;4.23;1.47;;;14.20;1.00;;;;;;5052998;28;20452;-65
2021/04/26 11:11:45;;;;;;;3.05;1.75;;;13.80;1.00;;;;;;5049787;28;20180;-65
2021/04/26 11:14:21;;;;;;;2.55;1.40;;;14.60;1.00;;;;;;5051961;28;20207;-63
2021/04/26 11:16:54;;;;;;;1.65;1.52;;;14.70;1.00;;;;;;5033006;28;20199;-61
2021/04/26 11:19:19;;;;;;;1.35;1.15;;;14.60;1.00;;;;;;5032485;28;20581;-61
2021/04/26 11:21:46;;;;;;;4.13;1.27;;;14.80;1.00;;;;;;5039998;28;20264;-62
2021/04/26 11:24:24;;;;;;;2.15;1.48;;;14.80;1.00;;;;;;5058273;28;20205;-64
2021/04/26 11:27:08;;;;;;;4.28;1.45;;;14.50;1.00;;;;;;5053004;28;20190;-62
2021/04/26 11:29:47;;;;;;;2.50;1.67;;;14.50;1.00;;;;;;5052348;28;20185;-62
2021/04/26 11:32:14;;;;;;;3.55;2.00;;;14.20;1.00;;;;;;5051670;28;20242;-62
2021/04/26 11:34:49;;;;;;;5.53;2.67;;;14.20;1.00;;;;;;5063850;28;20232;-62
2021/04/26 11:37:36;;;;;;;2.28;1.70;;;13.90;1.00;;;;;;5072766;28;20175;-62
2021/04/26 11:40:26;;;;;;;3.05;1.85;;;13.80;1.00;;;;;;5071937;28;20192;-63
2021/04/26 11:43:01;;;;;;;3.60;1.67;;;13.90;1.00;;;;;;5072465;28;20180;-64
2021/04/26 11:45:27;;;;;;;2.60;1.60;;;14.30;1.00;;;;;;5071790;28;20665;-65
2021/04/26 11:47:53;;;;;;;4.70;1.83;;;14.70;1.00;;;;;;5072254;28;20313;-67
2021/04/26 11:50:18;;;;;;;4.30;1.67;;;14.30;1.00;;;;;;5072478;28;20176;-66
2021/04/26 11:52:44;;;;;;;2.73;1.60;;;13.90;1.00;;;;;;5057739;28;20739;-66
2021/04/26 11:55:13;;;;;;;2.78;1.92;;;13.60;1.00;;;;;;5051963;28;20182;-66
2021/04/26 11:57:48;;;;;;;2.13;1.55;;;13.10;1.00;;;;;;5052311;28;20177;-67
2021/04/26 12:00:22;;;;;;;3.25;1.60;;;13.60;1.00;;;;;;5055588;28;20184;-67
2021/04/26 12:02:49;;;;;;;1.85;1.40;;;14.10;1.00;;;;;;5055859;28;20526;-64
2021/04/26 12:05:26;;;;;;;2.15;1.75;;;14.20;1.00;;;;;;5055744;28;20300;-64
2021/04/26 12:07:54;;;;;;;2.80;1.80;;;13.90;1.00;;;;;;5055762;28;20199;-66
2021/04/26 12:10:26;;;;;;;1.98;1.48;;;13.10;1.00;;;;;;5055476;28;20600;-66
2021/04/26 12:12:56;;;;;;;2.08;1.73;;;13.30;1.00;;;;;;5055874;28;20203;-67
2021/04/26 12:15:23;;;;;;;2.55;1.77;;;13.80;1.00;;;;;;5055008;28;20216;-67
2021/04/26 12:18:00;;;;;;;2.17;1.70;;;13.30;1.00;;;;;;5055701;28;20211;-66
2021/04/26 12:20:28;;;;;;;2.60;1.90;;;13.00;1.00;;;;;;5055644;28;20203;-66
2021/04/26 12:22:56;;;;;;;2.53;1.65;;;12.50;1.00;;;;;;5060976;28;20178;-66
2021/04/26 12:25:23;;;;;;;1.45;1.23;;;13.10;1.00;;;;;;5055082;28;20222;-67
2021/04/26 12:28:09;;;;;;;2.65;1.80;;;13.30;1.00;;;;;;5055943;28;20223;-66
2021/04/26 12:30:40;;;;;;;3.05;2.03;;;12.90;1.00;;;;;;5055405;28;20172;-67
2021/04/26 12:33:26;;;;;;;2.75;1.90;;;13.20;1.00;;;;;;5055382;28;20207;-67
2021/04/26 12:35:53;;;;;;;2.10;1.40;;;13.20;1.00;;;;;;5054981;28;20180;-67
2021/04/26 12:38:30;;;;;;;2.17;1.45;;;12.70;1.00;;;;;;5055380;28;20181;-68
2021/04/26 12:40:59;;;;;;;2.60;1.80;;;12.50;1.00;;;;;;5055940;28;20180;-66
2021/04/26 12:43:41;;;;;;;1.95;1.38;;;12.70;1.00;;;;;;5055105;28;20187;-67
2021/04/26 12:46:08;;;;;;;2.90;1.95;;;12.50;1.00;;;;;;5055201;28;20176;-67
2021/04/26 12:48:35;;;;;;;4.63;1.50;;;12.40;1.00;;;;;;5055391;28;20186;-66
2021/04/26 12:51:03;;;;;;;2.38;2.17;;;12.30;1.00;;;;;;5054348;28;20712;-67
2021/04/26 12:53:28;;;;;;;2.67;1.40;;;12.30;1.00;;;;;;5035104;28;20209;-66
2021/04/26 12:56:02;;;;;;;2.00;1.80;;;12.20;1.00;;;;;;5034754;28;20182;-65
2021/04/26 12:58:36;;;;;;;1.80;1.70;;;11.90;1.00;;;;;;5033871;28;20185;-66
2021/04/26 13:01:01;;;;;;;2.28;1.75;;;11.80;1.00;;;;;;5034971;28;20185;-67
2021/04/26 13:03:32;;;;;;;2.40;2.00;;;11.70;1.00;;;;;;5033693;28;20189;-65
2021/04/26 13:06:11;;;;;;;2.70;1.65;;;11.80;1.00;;;;;;5069956;28;20196;-65
2021/04/26 13:08:39;;;;;;;3.28;1.98;;;11.50;1.00;;;;;;5074461;28;20219;-66
2021/04/26 13:11:07;;;;;;;2.55;1.70;;;11.90;1.00;;;;;;5059346;28;20594;-66